createdAt,value
2023-03-20T00:01:52.622Z,7.97
2023-03-20T00:06:58.022Z,8.10
2023-03-20T00:12:08.362Z,8.20
2023-03-20T00:17:21.362Z,8.28
2023-03-20T00:22:25.199Z,8.34
2023-03-20T00:27:27.390Z,8.37
2023-03-20T00:32:31.368Z,8.28
2023-03-20T00:37:48.476Z,7.88
2023-03-20T00:43:14.103Z,7.62
2023-03-20T00:48:17.302Z,7.48
2023-03-20T00:53:39.410Z,7.40
2023-03-20T00:58:42.934Z,7.35
2023-03-20T01:03:45.771Z,7.34
2023-03-20T01:08:53.298Z,7.34
2023-03-20T01:13:58.337Z,7.56
2023-03-20T01:19:03.288Z,8.00
2023-03-20T01:24:05.712Z,8.28
2023-03-20T01:29:31.339Z,8.52
2023-03-20T01:34:40.684Z,8.68
2023-03-20T01:39:43.842Z,8.80
2023-03-20T01:44:47.395Z,8.81
2023-03-20T01:50:18.686Z,8.46
2023-03-20T01:55:22.985Z,8.19
2023-03-20T02:00:37.215Z,8.04
2023-03-20T02:05:44.737Z,7.92
2023-03-20T02:10:49.610Z,7.82
2023-03-20T02:16:04.695Z,7.75
2023-03-20T02:21:54.073Z,7.83
2023-03-20T02:26:56.359Z,8.24
2023-03-20T02:32:37.898Z,8.49
2023-03-20T02:38:09.961Z,8.71
2023-03-20T02:43:53.342Z,8.86
2023-03-20T02:49:11.570Z,9.01
2023-03-20T02:54:31.213Z,9.06
2023-03-20T03:00:04.558Z,8.95
2023-03-20T03:05:19.677Z,8.50
2023-03-20T03:10:27.368Z,8.23
2023-03-20T03:15:40.282Z,8.04
2023-03-20T03:21:05.987Z,7.89
2023-03-20T03:26:31.954Z,7.74
2023-03-20T03:31:44.643Z,7.73
2023-03-20T03:37:07.659Z,8.05
2023-03-20T03:42:34.645Z,8.23
2023-03-20T03:47:47.198Z,8.35
2023-03-20T03:52:52.963Z,8.41
2023-03-20T03:58:03.800Z,8.44
2023-03-20T04:03:08.950Z,8.47
2023-03-20T04:08:21.993Z,8.48
2023-03-20T04:13:26.528Z,8.49
2023-03-20T04:18:29.447Z,8.49
2023-03-20T04:23:33.275Z,8.46
2023-03-20T04:28:39.226Z,8.44
2023-03-20T04:33:51.654Z,8.44
2023-03-20T04:39:09.186Z,8.41
2023-03-20T04:44:11.421Z,8.39
2023-03-20T04:49:20.547Z,8.41
2023-03-20T04:54:26.747Z,8.43
2023-03-20T04:59:29.596Z,8.49
2023-03-20T05:04:32.140Z,8.58
2023-03-20T05:09:35.327Z,8.68
2023-03-20T05:14:40.373Z,8.79
2023-03-20T05:20:05.451Z,8.88
2023-03-20T05:25:19.688Z,8.88
2023-03-20T05:30:38.301Z,8.91
2023-03-20T05:36:00.724Z,8.97
2023-03-20T05:41:36.762Z,9.04
2023-03-20T05:47:02.501Z,9.10
2023-03-20T05:52:42.821Z,9.16
2023-03-20T05:58:05.598Z,9.15
2023-03-20T06:03:34.055Z,9.19
2023-03-20T06:08:43.438Z,9.33
2023-03-20T06:13:50.833Z,9.56
2023-03-20T06:18:55.685Z,9.76
2023-03-20T06:23:59.959Z,9.88
2023-03-20T06:29:04.756Z,10.02
2023-03-20T06:34:14.038Z,10.09
2023-03-20T06:39:19.547Z,10.08
2023-03-20T06:44:22.895Z,10.11
2023-03-20T06:49:53.004Z,10.17
2023-03-20T06:54:58.248Z,10.32
2023-03-20T07:00:05.905Z,10.51
2023-03-20T07:05:12.406Z,10.66
2023-03-20T07:10:14.584Z,10.84
2023-03-20T07:15:26.756Z,11.02
2023-03-20T07:20:31.855Z,11.17
2023-03-20T07:25:55.532Z,11.36
2023-03-20T07:31:00.756Z,11.47
2023-03-20T07:36:28.181Z,11.69
2023-03-20T07:41:51.584Z,11.88
2023-03-20T07:47:08.348Z,11.98
2023-03-20T07:52:14.262Z,12.02
2023-03-20T07:57:20.872Z,12.09
2023-03-20T08:02:29.985Z,12.19
2023-03-20T08:07:43.794Z,12.40
2023-03-20T08:12:49.007Z,12.57
2023-03-20T08:17:51.926Z,12.65
2023-03-20T08:22:54.041Z,12.72
2023-03-20T08:27:56.008Z,12.92
2023-03-20T08:32:59.109Z,13.23
2023-03-20T08:38:07.118Z,13.42
2023-03-20T08:43:15.423Z,13.48
2023-03-20T08:48:18.175Z,13.52
2023-03-20T08:53:23.690Z,13.57
2023-03-20T08:58:29.442Z,13.57
2023-03-20T09:03:31.850Z,13.70
2023-03-20T09:08:38.213Z,13.93
2023-03-20T09:13:41.064Z,14.02
2023-03-20T09:18:44.218Z,14.04
2023-03-20T09:23:48.580Z,14.28
2023-03-20T09:28:57.378Z,14.48
2023-03-20T09:34:15.470Z,14.64
2023-03-20T09:39:19.242Z,14.82
2023-03-20T09:44:51.371Z,15.04
2023-03-20T09:50:10.371Z,15.32
2023-03-20T09:55:41.764Z,15.53
2023-03-20T10:00:49.059Z,15.54
2023-03-20T10:06:29.769Z,15.75
2023-03-20T10:12:04.762Z,15.72
2023-03-20T10:17:40.054Z,15.55
2023-03-20T10:22:53.534Z,15.35
2023-03-20T10:28:11.285Z,15.20
2023-03-20T10:33:33.191Z,15.09
2023-03-20T10:39:23.437Z,15.04
2023-03-20T10:44:38.508Z,14.97
2023-03-20T10:50:00.365Z,14.84
2023-03-20T10:55:20.878Z,14.75
2023-03-20T11:00:28.638Z,14.82
2023-03-20T11:05:37.008Z,15.04
2023-03-20T11:10:43.465Z,15.34
2023-03-20T11:15:49.144Z,15.72
2023-03-20T11:20:57.380Z,16.00
2023-03-20T11:26:07.248Z,16.43
2023-03-20T11:31:20.069Z,16.80
2023-03-20T11:36:40.463Z,16.95
2023-03-20T11:41:50.071Z,16.77
2023-03-20T11:47:19.706Z,16.69
2023-03-20T11:52:28.834Z,16.61
2023-03-20T11:57:46.822Z,16.48
2023-03-20T12:02:55.500Z,16.69
2023-03-20T12:08:16.664Z,16.82
2023-03-20T12:13:27.644Z,16.74
2023-03-20T12:18:39.533Z,16.62
2023-03-20T12:23:51.485Z,16.31
2023-03-20T12:29:05.363Z,16.01
2023-03-20T12:34:28.158Z,15.88
2023-03-20T12:39:41.364Z,15.64
2023-03-20T12:45:02.880Z,15.37
2023-03-20T12:50:28.645Z,15.06
2023-03-20T12:56:12.013Z,14.85
2023-03-20T13:01:32.064Z,15.17
2023-03-20T13:06:48.897Z,15.43
2023-03-20T13:12:26.303Z,15.68
2023-03-20T13:18:00.566Z,15.82
2023-03-20T13:23:34.727Z,15.81
2023-03-20T13:29:29.569Z,15.89
2023-03-20T13:35:21.806Z,16.04
2023-03-20T13:40:33.757Z,16.10
2023-03-20T13:45:48.718Z,15.96
2023-03-20T13:51:26.297Z,15.78
2023-03-20T13:57:19.745Z,15.76
2023-03-20T14:02:55.246Z,15.77
2023-03-20T14:08:30.753Z,15.70
2023-03-20T14:13:34.985Z,15.60
2023-03-20T14:18:38.531Z,15.50
2023-03-20T14:23:49.278Z,15.38
2023-03-20T14:29:19.726Z,15.26
2023-03-20T14:35:05.736Z,15.29
2023-03-20T14:40:31.787Z,15.30
2023-03-20T14:45:58.809Z,15.35
2023-03-20T14:51:37.939Z,15.42
2023-03-20T14:56:40.842Z,15.42
2023-03-20T15:01:50.959Z,15.48
2023-03-20T15:07:07.959Z,15.53
2023-03-20T15:12:14.216Z,15.57
2023-03-20T15:17:34.993Z,15.62
2023-03-20T15:22:59.762Z,15.65
2023-03-20T15:28:06.213Z,15.70
2023-03-20T15:33:20.477Z,15.76
2023-03-20T15:38:34.543Z,15.83
2023-03-20T15:43:40.446Z,15.88
2023-03-20T15:48:50.404Z,15.95
2023-03-20T15:53:52.948Z,16.04
2023-03-20T15:58:57.394Z,16.10
2023-03-20T16:04:00.092Z,16.18
2023-03-20T16:09:06.857Z,16.17
2023-03-20T16:14:25.066Z,16.08
2023-03-20T16:19:31.372Z,15.82
2023-03-20T16:24:39.375Z,15.53
2023-03-20T16:29:49.998Z,15.26
2023-03-20T16:34:57.786Z,15.01
2023-03-20T16:40:35.047Z,14.71
2023-03-20T16:45:56.749Z,14.40
2023-03-20T16:51:13.693Z,14.19
2023-03-20T16:56:29.734Z,13.99
2023-03-20T17:01:33.334Z,13.88
2023-03-20T17:06:46.135Z,13.79
2023-03-20T17:12:03.474Z,13.70
2023-03-20T17:17:12.755Z,13.63
2023-03-20T17:22:24.111Z,13.56
2023-03-20T17:27:27.708Z,13.52
2023-03-20T17:32:33.107Z,13.49
2023-03-20T17:37:38.589Z,13.42
2023-03-20T17:42:40.820Z,13.32
2023-03-20T17:47:45.664Z,13.17
2023-03-20T17:52:50.661Z,13.06
2023-03-20T17:57:55.494Z,12.95
2023-03-20T18:02:57.760Z,12.90
2023-03-20T18:08:30.886Z,12.86
2023-03-20T18:13:35.688Z,12.79
2023-03-20T18:18:38.154Z,12.70
2023-03-20T18:23:45.589Z,12.63
2023-03-20T18:28:52.825Z,12.58
2023-03-20T18:33:57.246Z,12.57
2023-03-20T18:39:05.832Z,12.54
2023-03-20T18:44:08.149Z,12.51
2023-03-20T18:49:22.647Z,12.50
2023-03-20T18:54:27.439Z,12.50
2023-03-20T18:59:30.601Z,12.47
2023-03-20T19:04:35.801Z,12.45
2023-03-20T19:09:38.065Z,12.43
2023-03-20T19:15:00.481Z,12.38
2023-03-20T19:20:02.815Z,12.37
2023-03-20T19:25:05.919Z,12.36
2023-03-20T19:30:38.157Z,12.33
2023-03-20T19:36:03.372Z,12.29
2023-03-20T19:41:08.701Z,12.19
2023-03-20T19:46:28.474Z,12.08
2023-03-20T19:51:40.858Z,12.04
2023-03-20T19:56:43.373Z,12.01
2023-03-20T20:01:47.332Z,11.90
2023-03-20T20:06:55.651Z,11.79
2023-03-20T20:12:04.377Z,11.68
2023-03-20T20:17:07.188Z,11.63
2023-03-20T20:22:29.535Z,11.58
2023-03-20T20:27:32.368Z,11.49
2023-03-20T20:32:36.541Z,11.42
2023-03-20T20:43:10.496Z,11.37
2023-03-20T20:48:13.350Z,11.37
2023-03-20T20:53:15.688Z,11.29
2023-03-20T20:58:18.873Z,11.21
2023-03-20T21:03:21.205Z,11.15
2023-03-20T21:08:26.199Z,11.10
2023-03-20T21:13:28.322Z,11.03
2023-03-20T21:18:31.193Z,11.01
2023-03-20T21:23:33.751Z,11.03
2023-03-20T21:28:37.012Z,11.00
2023-03-20T21:33:38.956Z,10.96
2023-03-20T21:44:04.091Z,10.91
2023-03-20T21:50:01.530Z,10.91
2023-03-20T22:06:33.266Z,10.93
2023-03-20T22:12:01.835Z,10.93
2023-03-20T22:17:40.765Z,10.88
2023-03-20T22:33:41.364Z,10.87
2023-03-20T22:39:05.141Z,10.89
2023-03-20T22:44:50.019Z,10.90
2023-03-20T22:49:19.854Z,10.90
2023-03-20T22:54:26.456Z,10.90
2023-03-20T22:59:29.051Z,10.90
2023-03-20T23:04:33.777Z,10.87
2023-03-20T23:09:36.574Z,10.83
2023-03-20T23:14:46.203Z,10.81
2023-03-20T23:20:10.980Z,10.83
2023-03-20T23:25:23.808Z,10.84
2023-03-20T23:30:44.363Z,10.81
2023-03-20T23:36:01.257Z,10.77
2023-03-20T23:41:19.133Z,10.77
2023-03-20T23:46:30.039Z,10.78
2023-03-20T23:51:46.331Z,10.76
2023-03-20T23:57:00.968Z,10.73
